sensor_id;sensor_type;location;lat;lon;timestamp;P1;durP1;ratioP1;P2;durP2;ratioP2
30681;SDS011;17439;48.092;11.842;2024-01-10T00:00:32;49.28;;;13.73;;
30681;SDS011;17439;48.092;11.842;2024-01-10T00:02:59;41.53;;;13.45;;
30681;SDS011;17439;48.092;11.842;2024-01-10T00:05:26;35.22;;;12.70;;
30681;SDS011;17439;48.092;11.842;2024-01-10T00:07:52;39.15;;;12.73;;
30681;SDS011;17439;48.092;11.842;2024-01-10T00:10:19;30.13;;;11.05;;
30681;SDS011;17439;48.092;11.842;2024-01-10T00:12:46;36.33;;;11.88;;
30681;SDS011;17439;48.092;11.842;2024-01-10T00:15:13;33.50;;;12.38;;
30681;SDS011;17439;48.092;11.842;2024-01-10T00:17:40;45.13;;;14.88;;
30681;SDS011;17439;48.092;11.842;2024-01-10T00:20:07;30.48;;;11.43;;
30681;SDS011;17439;48.092;11.842;2024-01-10T00:22:34;37.08;;;11.20;;
30681;SDS011;17439;48.092;11.842;2024-01-10T00:25:01;40.85;;;11.40;;
30681;SDS011;17439;48.092;11.842;2024-01-10T00:27:28;44.17;;;12.77;;
30681;SDS011;17439;48.092;11.842;2024-01-10T00:29:54;38.80;;;13.85;;
30681;SDS011;17439;48.092;11.842;2024-01-10T00:32:21;39.25;;;12.73;;
30681;SDS011;17439;48.092;11.842;2024-01-10T00:34:48;42.63;;;13.75;;
30681;SDS011;17439;48.092;11.842;2024-01-10T00:37:15;32.53;;;11.95;;
30681;SDS011;17439;48.092;11.842;2024-01-10T00:39:41;40.88;;;12.10;;
30681;SDS011;17439;48.092;11.842;2024-01-10T00:42:08;37.95;;;10.70;;
30681;SDS011;17439;48.092;11.842;2024-01-10T00:44:35;39.35;;;12.75;;
30681;SDS011;17439;48.092;11.842;2024-01-10T00:47:02;34.53;;;10.48;;
30681;SDS011;17439;48.092;11.842;2024-01-10T00:49:29;31.05;;;11.18;;
30681;SDS011;17439;48.092;11.842;2024-01-10T00:51:55;41.42;;;11.18;;
30681;SDS011;17439;48.092;11.842;2024-01-10T00:54:22;37.45;;;11.07;;
30681;SDS011;17439;48.092;11.842;2024-01-10T00:56:49;39.05;;;11.35;;
30681;SDS011;17439;48.092;11.842;2024-01-10T00:59:15;31.33;;;11.10;;
30681;SDS011;17439;48.092;11.842;2024-01-10T01:01:42;38.65;;;12.02;;
30681;SDS011;17439;48.092;11.842;2024-01-10T01:04:09;35.55;;;12.05;;
30681;SDS011;17439;48.092;11.842;2024-01-10T01:06:36;32.47;;;12.07;;
30681;SDS011;17439;48.092;11.842;2024-01-10T01:09:03;35.75;;;13.43;;
30681;SDS011;17439;48.092;11.842;2024-01-10T01:11:29;36.72;;;12.45;;
30681;SDS011;17439;48.092;11.842;2024-01-10T01:13:56;37.78;;;13.98;;
30681;SDS011;17439;48.092;11.842;2024-01-10T01:16:23;34.97;;;11.95;;
30681;SDS011;17439;48.092;11.842;2024-01-10T01:18:50;34.50;;;12.20;;
30681;SDS011;17439;48.092;11.842;2024-01-10T01:21:16;44.85;;;15.38;;
30681;SDS011;17439;48.092;11.842;2024-01-10T01:23:43;39.90;;;12.07;;
30681;SDS011;17439;48.092;11.842;2024-01-10T01:26:10;43.27;;;14.03;;
30681;SDS011;17439;48.092;11.842;2024-01-10T01:28:37;39.10;;;14.13;;
30681;SDS011;17439;48.092;11.842;2024-01-10T01:31:04;46.97;;;13.98;;
30681;SDS011;17439;48.092;11.842;2024-01-10T01:33:30;39.03;;;13.43;;
30681;SDS011;17439;48.092;11.842;2024-01-10T01:35:57;42.40;;;14.07;;
30681;SDS011;17439;48.092;11.842;2024-01-10T01:38:24;43.17;;;13.07;;
30681;SDS011;17439;48.092;11.842;2024-01-10T01:40:51;41.28;;;13.88;;
30681;SDS011;17439;48.092;11.842;2024-01-10T01:43:19;45.05;;;13.57;;
30681;SDS011;17439;48.092;11.842;2024-01-10T01:45:47;36.78;;;12.98;;
30681;SDS011;17439;48.092;11.842;2024-01-10T01:48:18;40.47;;;13.73;;
30681;SDS011;17439;48.092;11.842;2024-01-10T01:50:46;31.27;;;12.25;;
30681;SDS011;17439;48.092;11.842;2024-01-10T01:53:15;28.55;;;9.80;;
30681;SDS011;17439;48.092;11.842;2024-01-10T01:55:42;23.45;;;8.52;;
30681;SDS011;17439;48.092;11.842;2024-01-10T01:58:11;37.30;;;12.80;;
30681;SDS011;17439;48.092;11.842;2024-01-10T02:00:38;28.73;;;10.63;;
30681;SDS011;17439;48.092;11.842;2024-01-10T02:05:34;37.22;;;12.48;;
30681;SDS011;17439;48.092;11.842;2024-01-10T02:08:01;40.22;;;12.30;;
30681;SDS011;17439;48.092;11.842;2024-01-10T02:10:27;53.70;;;14.57;;
30681;SDS011;17439;48.092;11.842;2024-01-10T02:12:54;39.22;;;13.32;;
30681;SDS011;17439;48.092;11.842;2024-01-10T02:15:21;37.10;;;11.87;;
30681;SDS011;17439;48.092;11.842;2024-01-10T02:17:48;41.22;;;12.88;;
30681;SDS011;17439;48.092;11.842;2024-01-10T02:20:15;32.75;;;11.35;;
30681;SDS011;17439;48.092;11.842;2024-01-10T02:22:42;41.85;;;12.80;;
30681;SDS011;17439;48.092;11.842;2024-01-10T02:25:10;31.13;;;10.27;;
30681;SDS011;17439;48.092;11.842;2024-01-10T02:27:37;36.03;;;10.82;;
30681;SDS011;17439;48.092;11.842;2024-01-10T02:30:05;39.83;;;12.65;;
30681;SDS011;17439;48.092;11.842;2024-01-10T02:32:32;46.05;;;12.32;;
30681;SDS011;17439;48.092;11.842;2024-01-10T02:34:59;44.77;;;13.97;;
30681;SDS011;17439;48.092;11.842;2024-01-10T02:37:26;40.10;;;11.40;;
30681;SDS011;17439;48.092;11.842;2024-01-10T02:39:53;30.20;;;10.83;;
30681;SDS011;17439;48.092;11.842;2024-01-10T02:42:20;30.65;;;9.68;;
30681;SDS011;17439;48.092;11.842;2024-01-10T02:44:47;36.45;;;11.98;;
30681;SDS011;17439;48.092;11.842;2024-01-10T02:47:14;34.92;;;10.80;;
30681;SDS011;17439;48.092;11.842;2024-01-10T02:52:08;44.38;;;12.20;;
30681;SDS011;17439;48.092;11.842;2024-01-10T02:54:35;36.33;;;11.00;;
30681;SDS011;17439;48.092;11.842;2024-01-10T02:57:01;37.22;;;12.68;;
30681;SDS011;17439;48.092;11.842;2024-01-10T02:59:28;43.53;;;12.63;;
30681;SDS011;17439;48.092;11.842;2024-01-10T03:01:55;43.60;;;11.98;;
30681;SDS011;17439;48.092;11.842;2024-01-10T03:04:22;37.97;;;11.88;;
30681;SDS011;17439;48.092;11.842;2024-01-10T03:06:48;42.17;;;13.13;;
30681;SDS011;17439;48.092;11.842;2024-01-10T03:09:15;43.05;;;13.57;;
30681;SDS011;17439;48.092;11.842;2024-01-10T03:11:42;40.60;;;13.20;;
30681;SDS011;17439;48.092;11.842;2024-01-10T03:14:09;47.65;;;13.57;;
30681;SDS011;17439;48.092;11.842;2024-01-10T03:16:37;35.55;;;11.85;;
30681;SDS011;17439;48.092;11.842;2024-01-10T03:19:05;37.63;;;11.73;;
30681;SDS011;17439;48.092;11.842;2024-01-10T03:21:31;39.50;;;13.27;;
30681;SDS011;17439;48.092;11.842;2024-01-10T03:23:59;40.15;;;11.82;;
30681;SDS011;17439;48.092;11.842;2024-01-10T03:26:27;35.53;;;12.00;;
30681;SDS011;17439;48.092;11.842;2024-01-10T03:31:21;37.40;;;12.60;;
30681;SDS011;17439;48.092;11.842;2024-01-10T03:33:48;37.38;;;11.43;;
30681;SDS011;17439;48.092;11.842;2024-01-10T03:36:15;33.73;;;11.13;;
30681;SDS011;17439;48.092;11.842;2024-01-10T03:38:43;29.42;;;10.40;;
30681;SDS011;17439;48.092;11.842;2024-01-10T03:41:14;34.63;;;10.07;;
30681;SDS011;17439;48.092;11.842;2024-01-10T03:43:42;35.40;;;12.90;;
30681;SDS011;17439;48.092;11.842;2024-01-10T03:46:09;49.15;;;14.25;;
30681;SDS011;17439;48.092;11.842;2024-01-10T03:48:36;42.60;;;13.05;;
30681;SDS011;17439;48.092;11.842;2024-01-10T03:51:03;44.92;;;12.98;;
30681;SDS011;17439;48.092;11.842;2024-01-10T03:53:30;29.17;;;11.57;;
30681;SDS011;17439;48.092;11.842;2024-01-10T03:55:57;34.50;;;9.45;;
30681;SDS011;17439;48.092;11.842;2024-01-10T03:58:24;34.72;;;12.20;;
30681;SDS011;17439;48.092;11.842;2024-01-10T04:00:50;30.65;;;11.05;;
30681;SDS011;17439;48.092;11.842;2024-01-10T04:03:17;36.38;;;12.23;;
30681;SDS011;17439;48.092;11.842;2024-01-10T04:05:44;41.90;;;13.77;;
30681;SDS011;17439;48.092;11.842;2024-01-10T04:08:11;38.27;;;10.97;;
30681;SDS011;17439;48.092;11.842;2024-01-10T04:13:06;37.88;;;11.80;;
30681;SDS011;17439;48.092;11.842;2024-01-10T04:15:32;37.08;;;13.23;;
30681;SDS011;17439;48.092;11.842;2024-01-10T04:17:59;37.80;;;13.43;;
30681;SDS011;17439;48.092;11.842;2024-01-10T04:20:26;39.25;;;12.10;;
30681;SDS011;17439;48.092;11.842;2024-01-10T04:22:53;46.65;;;14.02;;
30681;SDS011;17439;48.092;11.842;2024-01-10T04:25:19;31.75;;;11.80;;
30681;SDS011;17439;48.092;11.842;2024-01-10T04:27:46;40.55;;;13.85;;
30681;SDS011;17439;48.092;11.842;2024-01-10T04:30:13;33.63;;;10.20;;
30681;SDS011;17439;48.092;11.842;2024-01-10T04:32:40;35.97;;;10.53;;
30681;SDS011;17439;48.092;11.842;2024-01-10T04:35:07;34.92;;;10.85;;
30681;SDS011;17439;48.092;11.842;2024-01-10T04:37:34;33.00;;;10.38;;
30681;SDS011;17439;48.092;11.842;2024-01-10T04:40:00;38.60;;;12.00;;
30681;SDS011;17439;48.092;11.842;2024-01-10T04:42:27;29.30;;;10.35;;
30681;SDS011;17439;48.092;11.842;2024-01-10T04:44:54;32.00;;;10.43;;
30681;SDS011;17439;48.092;11.842;2024-01-10T04:47:20;39.95;;;11.35;;
30681;SDS011;17439;48.092;11.842;2024-01-10T04:49:47;36.80;;;12.68;;
30681;SDS011;17439;48.092;11.842;2024-01-10T04:52:14;35.03;;;11.63;;
30681;SDS011;17439;48.092;11.842;2024-01-10T04:54:41;35.20;;;10.90;;
30681;SDS011;17439;48.092;11.842;2024-01-10T04:57:08;39.55;;;12.50;;
30681;SDS011;17439;48.092;11.842;2024-01-10T04:59:34;38.90;;;13.00;;
30681;SDS011;17439;48.092;11.842;2024-01-10T05:02:01;32.00;;;11.90;;
30681;SDS011;17439;48.092;11.842;2024-01-10T05:04:28;37.45;;;12.48;;
30681;SDS011;17439;48.092;11.842;2024-01-10T05:06:55;38.17;;;11.50;;
30681;SDS011;17439;48.092;11.842;2024-01-10T05:09:21;39.60;;;13.90;;
30681;SDS011;17439;48.092;11.842;2024-01-10T05:11:48;34.83;;;12.02;;
30681;SDS011;17439;48.092;11.842;2024-01-10T05:14:15;40.75;;;12.18;;
30681;SDS011;17439;48.092;11.842;2024-01-10T05:16:42;40.97;;;11.73;;
30681;SDS011;17439;48.092;11.842;2024-01-10T05:19:08;39.47;;;12.43;;
30681;SDS011;17439;48.092;11.842;2024-01-10T05:21:35;43.20;;;13.93;;
30681;SDS011;17439;48.092;11.842;2024-01-10T05:24:02;45.20;;;14.48;;
30681;SDS011;17439;48.092;11.842;2024-01-10T05:26:29;45.25;;;14.25;;
30681;SDS011;17439;48.092;11.842;2024-01-10T05:28:55;41.88;;;14.27;;
30681;SDS011;17439;48.092;11.842;2024-01-10T05:31:22;44.53;;;14.02;;
30681;SDS011;17439;48.092;11.842;2024-01-10T05:33:49;36.35;;;12.30;;
30681;SDS011;17439;48.092;11.842;2024-01-10T05:36:16;42.10;;;13.82;;
30681;SDS011;17439;48.092;11.842;2024-01-10T05:38:42;40.92;;;14.48;;
30681;SDS011;17439;48.092;11.842;2024-01-10T05:41:09;47.65;;;14.43;;
30681;SDS011;17439;48.092;11.842;2024-01-10T05:43:36;42.35;;;13.80;;
30681;SDS011;17439;48.092;11.842;2024-01-10T05:46:03;36.85;;;12.57;;
30681;SDS011;17439;48.092;11.842;2024-01-10T05:48:30;43.22;;;13.13;;
30681;SDS011;17439;48.092;11.842;2024-01-10T05:50:57;42.00;;;14.03;;
30681;SDS011;17439;48.092;11.842;2024-01-10T05:53:24;51.70;;;13.70;;
30681;SDS011;17439;48.092;11.842;2024-01-10T05:55:51;41.78;;;14.27;;
30681;SDS011;17439;48.092;11.842;2024-01-10T05:58:17;43.60;;;14.65;;
30681;SDS011;17439;48.092;11.842;2024-01-10T06:00:44;40.67;;;12.88;;
30681;SDS011;17439;48.092;11.842;2024-01-10T06:03:11;44.20;;;15.45;;
30681;SDS011;17439;48.092;11.842;2024-01-10T06:05:38;41.90;;;13.27;;
30681;SDS011;17439;48.092;11.842;2024-01-10T06:08:04;37.72;;;11.88;;
30681;SDS011;17439;48.092;11.842;2024-01-10T06:10:31;39.47;;;13.67;;
30681;SDS011;17439;48.092;11.842;2024-01-10T06:13:02;64.47;;;18.65;;
30681;SDS011;17439;48.092;11.842;2024-01-10T06:15:29;54.05;;;16.85;;
30681;SDS011;17439;48.092;11.842;2024-01-10T06:17:56;51.85;;;14.45;;
30681;SDS011;17439;48.092;11.842;2024-01-10T06:20:22;52.47;;;16.48;;
30681;SDS011;17439;48.092;11.842;2024-01-10T06:22:49;51.60;;;16.00;;
30681;SDS011;17439;48.092;11.842;2024-01-10T06:25:16;49.83;;;13.80;;
30681;SDS011;17439;48.092;11.842;2024-01-10T06:27:43;46.80;;;16.38;;
30681;SDS011;17439;48.092;11.842;2024-01-10T06:30:10;49.40;;;15.82;;
30681;SDS011;17439;48.092;11.842;2024-01-10T06:32:37;60.33;;;17.25;;
30681;SDS011;17439;48.092;11.842;2024-01-10T06:35:04;60.47;;;16.80;;
30681;SDS011;17439;48.092;11.842;2024-01-10T06:37:31;55.85;;;17.58;;
30681;SDS011;17439;48.092;11.842;2024-01-10T06:40:01;48.65;;;16.15;;
30681;SDS011;17439;48.092;11.842;2024-01-10T06:42:28;55.25;;;17.50;;
30681;SDS011;17439;48.092;11.842;2024-01-10T06:44:54;56.00;;;18.02;;
30681;SDS011;17439;48.092;11.842;2024-01-10T06:47:21;51.60;;;16.33;;
30681;SDS011;17439;48.092;11.842;2024-01-10T06:49:48;44.63;;;15.43;;
30681;SDS011;17439;48.092;11.842;2024-01-10T06:52:15;47.35;;;15.68;;
30681;SDS011;17439;48.092;11.842;2024-01-10T06:54:42;51.60;;;15.00;;
30681;SDS011;17439;48.092;11.842;2024-01-10T06:57:08;57.67;;;17.52;;
30681;SDS011;17439;48.092;11.842;2024-01-10T06:59:35;59.33;;;18.77;;
30681;SDS011;17439;48.092;11.842;2024-01-10T07:02:02;51.78;;;17.90;;
30681;SDS011;17439;48.092;11.842;2024-01-10T07:04:29;44.63;;;15.33;;
30681;SDS011;17439;48.092;11.842;2024-01-10T07:06:55;44.05;;;13.77;;
30681;SDS011;17439;48.092;11.842;2024-01-10T07:09:22;46.28;;;15.18;;
30681;SDS011;17439;48.092;11.842;2024-01-10T07:11:49;53.63;;;16.42;;
30681;SDS011;17439;48.092;11.842;2024-01-10T07:14:16;49.85;;;16.80;;
30681;SDS011;17439;48.092;11.842;2024-01-10T07:16:43;54.30;;;17.63;;
30681;SDS011;17439;48.092;11.842;2024-01-10T07:19:10;46.72;;;16.40;;
30681;SDS011;17439;48.092;11.842;2024-01-10T07:21:36;53.85;;;15.10;;
30681;SDS011;17439;48.092;11.842;2024-01-10T07:24:03;56.63;;;19.20;;
30681;SDS011;17439;48.092;11.842;2024-01-10T07:26:30;54.80;;;16.33;;
30681;SDS011;17439;48.092;11.842;2024-01-10T07:28:57;49.40;;;17.23;;
30681;SDS011;17439;48.092;11.842;2024-01-10T07:31:24;52.38;;;16.75;;
30681;SDS011;17439;48.092;11.842;2024-01-10T07:33:50;47.88;;;16.67;;
30681;SDS011;17439;48.092;11.842;2024-01-10T07:36:17;51.13;;;18.05;;
30681;SDS011;17439;48.092;11.842;2024-01-10T07:38:44;62.88;;;19.10;;
30681;SDS011;17439;48.092;11.842;2024-01-10T07:41:11;61.80;;;18.65;;
30681;SDS011;17439;48.092;11.842;2024-01-10T07:43:38;69.03;;;18.50;;
30681;SDS011;17439;48.092;11.842;2024-01-10T07:46:04;51.30;;;18.20;;
30681;SDS011;17439;48.092;11.842;2024-01-10T07:48:31;52.75;;;16.02;;
30681;SDS011;17439;48.092;11.842;2024-01-10T07:50:58;47.67;;;17.20;;
30681;SDS011;17439;48.092;11.842;2024-01-10T07:53:25;51.30;;;16.48;;
30681;SDS011;17439;48.092;11.842;2024-01-10T07:55:52;51.43;;;17.73;;
30681;SDS011;17439;48.092;11.842;2024-01-10T07:58:19;50.58;;;17.50;;
30681;SDS011;17439;48.092;11.842;2024-01-10T08:00:46;54.08;;;16.67;;
30681;SDS011;17439;48.092;11.842;2024-01-10T08:03:13;53.42;;;18.48;;
30681;SDS011;17439;48.092;11.842;2024-01-10T08:05:39;46.58;;;15.68;;
30681;SDS011;17439;48.092;11.842;2024-01-10T08:08:06;49.65;;;16.92;;
30681;SDS011;17439;48.092;11.842;2024-01-10T08:10:33;57.70;;;19.02;;
30681;SDS011;17439;48.092;11.842;2024-01-10T08:13:02;52.72;;;17.60;;
30681;SDS011;17439;48.092;11.842;2024-01-10T08:15:29;58.10;;;18.95;;
30681;SDS011;17439;48.092;11.842;2024-01-10T08:17:55;50.30;;;16.70;;
30681;SDS011;17439;48.092;11.842;2024-01-10T08:20:22;45.45;;;15.10;;
30681;SDS011;17439;48.092;11.842;2024-01-10T08:22:49;64.38;;;17.90;;
30681;SDS011;17439;48.092;11.842;2024-01-10T08:25:16;49.42;;;15.25;;
30681;SDS011;17439;48.092;11.842;2024-01-10T08:27:43;48.40;;;15.43;;
30681;SDS011;17439;48.092;11.842;2024-01-10T08:30:11;50.40;;;15.85;;
30681;SDS011;17439;48.092;11.842;2024-01-10T08:32:38;48.73;;;15.90;;
30681;SDS011;17439;48.092;11.842;2024-01-10T08:35:05;52.92;;;17.42;;
30681;SDS011;17439;48.092;11.842;2024-01-10T08:37:32;54.60;;;17.48;;
30681;SDS011;17439;48.092;11.842;2024-01-10T08:39:59;46.65;;;15.82;;
30681;SDS011;17439;48.092;11.842;2024-01-10T08:42:26;57.33;;;17.38;;
30681;SDS011;17439;48.092;11.842;2024-01-10T08:44:53;43.10;;;15.63;;
30681;SDS011;17439;48.092;11.842;2024-01-10T08:47:20;42.63;;;14.35;;
30681;SDS011;17439;48.092;11.842;2024-01-10T08:49:47;55.58;;;16.05;;
30681;SDS011;17439;48.092;11.842;2024-01-10T08:52:14;44.15;;;15.82;;
30681;SDS011;17439;48.092;11.842;2024-01-10T08:54:40;48.03;;;15.25;;
30681;SDS011;17439;48.092;11.842;2024-01-10T08:57:07;53.42;;;17.92;;
30681;SDS011;17439;48.092;11.842;2024-01-10T08:59:34;54.83;;;17.55;;
30681;SDS011;17439;48.092;11.842;2024-01-10T09:02:01;56.65;;;18.27;;
30681;SDS011;17439;48.092;11.842;2024-01-10T09:04:27;49.88;;;16.88;;
30681;SDS011;17439;48.092;11.842;2024-01-10T09:06:54;48.08;;;16.42;;
30681;SDS011;17439;48.092;11.842;2024-01-10T09:09:21;48.78;;;16.73;;
30681;SDS011;17439;48.092;11.842;2024-01-10T09:11:48;50.13;;;17.20;;
30681;SDS011;17439;48.092;11.842;2024-01-10T09:14:15;54.08;;;18.23;;
30681;SDS011;17439;48.092;11.842;2024-01-10T09:16:41;51.80;;;19.10;;
30681;SDS011;17439;48.092;11.842;2024-01-10T09:19:08;53.33;;;18.10;;
30681;SDS011;17439;48.092;11.842;2024-01-10T09:21:37;58.63;;;18.08;;
30681;SDS011;17439;48.092;11.842;2024-01-10T09:24:04;53.05;;;18.27;;
30681;SDS011;17439;48.092;11.842;2024-01-10T09:26:47;54.72;;;16.08;;
30681;SDS011;17439;48.092;11.842;2024-01-10T09:29:13;58.30;;;18.20;;
30681;SDS011;17439;48.092;11.842;2024-01-10T09:31:40;56.03;;;19.05;;
30681;SDS011;17439;48.092;11.842;2024-01-10T09:34:07;59.42;;;19.58;;
30681;SDS011;17439;48.092;11.842;2024-01-10T09:36:34;63.05;;;18.77;;
30681;SDS011;17439;48.092;11.842;2024-01-10T09:39:01;53.90;;;17.38;;
30681;SDS011;17439;48.092;11.842;2024-01-10T09:41:27;48.22;;;16.60;;
30681;SDS011;17439;48.092;11.842;2024-01-10T09:43:57;58.22;;;17.50;;
30681;SDS011;17439;48.092;11.842;2024-01-10T09:46:24;59.10;;;19.25;;
30681;SDS011;17439;48.092;11.842;2024-01-10T09:48:52;48.97;;;18.02;;
30681;SDS011;17439;48.092;11.842;2024-01-10T09:51:22;50.40;;;15.15;;
30681;SDS011;17439;48.092;11.842;2024-01-10T09:53:49;55.63;;;17.65;;
30681;SDS011;17439;48.092;11.842;2024-01-10T09:56:18;56.50;;;20.02;;
30681;SDS011;17439;48.092;11.842;2024-01-10T09:58:45;58.22;;;21.67;;
30681;SDS011;17439;48.092;11.842;2024-01-10T10:01:15;51.88;;;18.85;;
30681;SDS011;17439;48.092;11.842;2024-01-10T10:03:42;56.42;;;17.67;;
30681;SDS011;17439;48.092;11.842;2024-01-10T10:06:12;56.55;;;19.08;;
30681;SDS011;17439;48.092;11.842;2024-01-10T10:08:41;52.72;;;18.73;;
30681;SDS011;17439;48.092;11.842;2024-01-10T10:11:12;55.63;;;19.63;;
30681;SDS011;17439;48.092;11.842;2024-01-10T10:13:39;52.80;;;18.05;;
30681;SDS011;17439;48.092;11.842;2024-01-10T10:16:06;62.22;;;20.25;;
30681;SDS011;17439;48.092;11.842;2024-01-10T10:18:33;56.23;;;19.67;;
30681;SDS011;17439;48.092;11.842;2024-01-10T10:21:18;60.15;;;18.08;;
30681;SDS011;17439;48.092;11.842;2024-01-10T10:23:58;51.60;;;16.10;;
30681;SDS011;17439;48.092;11.842;2024-01-10T10:26:26;50.25;;;18.05;;
30681;SDS011;17439;48.092;11.842;2024-01-10T10:28:54;52.40;;;15.68;;
30681;SDS011;17439;48.092;11.842;2024-01-10T10:31:21;55.00;;;17.10;;
30681;SDS011;17439;48.092;11.842;2024-01-10T10:33:49;48.90;;;17.10;;
30681;SDS011;17439;48.092;11.842;2024-01-10T10:36:16;41.40;;;16.17;;
30681;SDS011;17439;48.092;11.842;2024-01-10T10:38:44;61.40;;;20.77;;
30681;SDS011;17439;48.092;11.842;2024-01-10T10:41:11;55.93;;;18.30;;
30681;SDS011;17439;48.092;11.842;2024-01-10T10:43:41;59.78;;;18.90;;
30681;SDS011;17439;48.092;11.842;2024-01-10T10:46:08;52.13;;;18.50;;
30681;SDS011;17439;48.092;11.842;2024-01-10T10:48:36;55.85;;;17.90;;
30681;SDS011;17439;48.092;11.842;2024-01-10T10:51:04;51.40;;;16.75;;
30681;SDS011;17439;48.092;11.842;2024-01-10T10:53:38;52.35;;;16.35;;
30681;SDS011;17439;48.092;11.842;2024-01-10T10:56:06;45.53;;;16.20;;
30681;SDS011;17439;48.092;11.842;2024-01-10T10:58:34;58.83;;;19.35;;
30681;SDS011;17439;48.092;11.842;2024-01-10T11:01:03;57.08;;;16.45;;
30681;SDS011;17439;48.092;11.842;2024-01-10T11:03:31;58.55;;;19.30;;
30681;SDS011;17439;48.092;11.842;2024-01-10T11:06:01;60.08;;;19.15;;
30681;SDS011;17439;48.092;11.842;2024-01-10T11:08:30;61.67;;;17.98;;
30681;SDS011;17439;48.092;11.842;2024-01-10T11:11:02;62.10;;;18.63;;
30681;SDS011;17439;48.092;11.842;2024-01-10T11:16:19;55.10;;;19.48;;
30681;SDS011;17439;48.092;11.842;2024-01-10T11:24:26;55.92;;;19.17;;
30681;SDS011;17439;48.092;11.842;2024-01-10T11:27:12;60.63;;;21.83;;
30681;SDS011;17439;48.092;11.842;2024-01-10T11:29:40;71.63;;;20.15;;
30681;SDS011;17439;48.092;11.842;2024-01-10T11:32:15;52.60;;;18.42;;
30681;SDS011;17439;48.092;11.842;2024-01-10T11:34:59;55.53;;;17.90;;
30681;SDS011;17439;48.092;11.842;2024-01-10T11:37:39;60.78;;;20.92;;
30681;SDS011;17439;48.092;11.842;2024-01-10T11:40:09;53.35;;;19.60;;
30681;SDS011;17439;48.092;11.842;2024-01-10T11:42:43;60.92;;;18.40;;
30681;SDS011;17439;48.092;11.842;2024-01-10T11:47:59;51.20;;;20.08;;
30681;SDS011;17439;48.092;11.842;2024-01-10T11:50:26;57.83;;;19.33;;
30681;SDS011;17439;48.092;11.842;2024-01-10T11:52:54;48.97;;;16.65;;
30681;SDS011;17439;48.092;11.842;2024-01-10T11:58:13;81.30;;;22.35;;
30681;SDS011;17439;48.092;11.842;2024-01-10T12:00:40;70.15;;;23.35;;
30681;SDS011;17439;48.092;11.842;2024-01-10T12:03:07;74.78;;;21.75;;
30681;SDS011;17439;48.092;11.842;2024-01-10T12:08:06;60.50;;;19.53;;
30681;SDS011;17439;48.092;11.842;2024-01-10T12:10:45;70.45;;;22.33;;
30681;SDS011;17439;48.092;11.842;2024-01-10T12:13:11;52.83;;;17.48;;
30681;SDS011;17439;48.092;11.842;2024-01-10T12:15:38;54.88;;;18.85;;
30681;SDS011;17439;48.092;11.842;2024-01-10T12:18:05;57.47;;;17.48;;
30681;SDS011;17439;48.092;11.842;2024-01-10T12:20:32;53.05;;;15.77;;
30681;SDS011;17439;48.092;11.842;2024-01-10T12:22:58;58.28;;;18.35;;
30681;SDS011;17439;48.092;11.842;2024-01-10T12:25:25;62.25;;;21.10;;
30681;SDS011;17439;48.092;11.842;2024-01-10T12:27:52;74.68;;;21.48;;
30681;SDS011;17439;48.092;11.842;2024-01-10T12:30:19;63.63;;;19.30;;
30681;SDS011;17439;48.092;11.842;2024-01-10T12:32:50;56.03;;;19.63;;
30681;SDS011;17439;48.092;11.842;2024-01-10T12:35:17;62.85;;;20.60;;
30681;SDS011;17439;48.092;11.842;2024-01-10T12:37:53;62.20;;;19.73;;
30681;SDS011;17439;48.092;11.842;2024-01-10T12:40:20;70.93;;;21.08;;
30681;SDS011;17439;48.092;11.842;2024-01-10T12:42:47;61.07;;;21.97;;
30681;SDS011;17439;48.092;11.842;2024-01-10T12:45:23;61.00;;;20.95;;
30681;SDS011;17439;48.092;11.842;2024-01-10T12:47:52;53.60;;;17.30;;
30681;SDS011;17439;48.092;11.842;2024-01-10T12:50:20;49.67;;;16.63;;
30681;SDS011;17439;48.092;11.842;2024-01-10T12:52:46;59.85;;;19.27;;
30681;SDS011;17439;48.092;11.842;2024-01-10T12:55:13;53.40;;;18.23;;
30681;SDS011;17439;48.092;11.842;2024-01-10T12:57:40;45.47;;;15.98;;
30681;SDS011;17439;48.092;11.842;2024-01-10T13:00:07;61.03;;;17.95;;
30681;SDS011;17439;48.092;11.842;2024-01-10T13:02:35;56.53;;;18.10;;
30681;SDS011;17439;48.092;11.842;2024-01-10T13:05:05;39.92;;;14.35;;
30681;SDS011;17439;48.092;11.842;2024-01-10T13:07:33;63.35;;;19.00;;
30681;SDS011;17439;48.092;11.842;2024-01-10T13:09:59;53.20;;;22.08;;
30681;SDS011;17439;48.092;11.842;2024-01-10T13:12:26;61.88;;;19.73;;
30681;SDS011;17439;48.092;11.842;2024-01-10T13:14:53;61.13;;;19.80;;
30681;SDS011;17439;48.092;11.842;2024-01-10T13:17:20;53.47;;;18.02;;
30681;SDS011;17439;48.092;11.842;2024-01-10T13:19:47;67.57;;;20.42;;
30681;SDS011;17439;48.092;11.842;2024-01-10T13:22:17;55.92;;;19.17;;
30681;SDS011;17439;48.092;11.842;2024-01-10T13:24:44;59.55;;;18.65;;
30681;SDS011;17439;48.092;11.842;2024-01-10T13:29:39;47.75;;;16.58;;
30681;SDS011;17439;48.092;11.842;2024-01-10T13:32:06;51.83;;;17.00;;
30681;SDS011;17439;48.092;11.842;2024-01-10T13:34:33;66.47;;;19.70;;
30681;SDS011;17439;48.092;11.842;2024-01-10T13:37:00;54.95;;;17.35;;
30681;SDS011;17439;48.092;11.842;2024-01-10T13:39:27;54.03;;;20.02;;
30681;SDS011;17439;48.092;11.842;2024-01-10T13:41:54;61.55;;;20.13;;
30681;SDS011;17439;48.092;11.842;2024-01-10T13:44:20;63.80;;;19.73;;
30681;SDS011;17439;48.092;11.842;2024-01-10T13:46:47;63.08;;;19.50;;
30681;SDS011;17439;48.092;11.842;2024-01-10T13:49:14;59.83;;;17.70;;
30681;SDS011;17439;48.092;11.842;2024-01-10T13:51:41;65.00;;;19.35;;
30681;SDS011;17439;48.092;11.842;2024-01-10T13:54:07;66.88;;;21.13;;
30681;SDS011;17439;48.092;11.842;2024-01-10T13:56:34;54.20;;;17.98;;
30681;SDS011;17439;48.092;11.842;2024-01-10T13:59:01;64.68;;;20.77;;
30681;SDS011;17439;48.092;11.842;2024-01-10T14:01:28;64.50;;;20.00;;
30681;SDS011;17439;48.092;11.842;2024-01-10T14:03:55;50.90;;;18.23;;
30681;SDS011;17439;48.092;11.842;2024-01-10T14:06:22;56.47;;;17.20;;
30681;SDS011;17439;48.092;11.842;2024-01-10T14:08:49;50.28;;;16.17;;
30681;SDS011;17439;48.092;11.842;2024-01-10T14:11:15;45.30;;;15.40;;
30681;SDS011;17439;48.092;11.842;2024-01-10T14:13:42;51.03;;;16.70;;
30681;SDS011;17439;48.092;11.842;2024-01-10T14:16:09;55.22;;;16.25;;
30681;SDS011;17439;48.092;11.842;2024-01-10T14:18:36;53.88;;;16.50;;
30681;SDS011;17439;48.092;11.842;2024-01-10T14:21:03;50.47;;;16.53;;
30681;SDS011;17439;48.092;11.842;2024-01-10T14:23:30;45.53;;;16.17;;
30681;SDS011;17439;48.092;11.842;2024-01-10T14:25:57;46.83;;;15.27;;
30681;SDS011;17439;48.092;11.842;2024-01-10T14:28:24;45.13;;;17.17;;
30681;SDS011;17439;48.092;11.842;2024-01-10T14:30:51;45.35;;;15.82;;
30681;SDS011;17439;48.092;11.842;2024-01-10T14:33:24;54.65;;;18.67;;
30681;SDS011;17439;48.092;11.842;2024-01-10T14:35:51;48.47;;;15.13;;
30681;SDS011;17439;48.092;11.842;2024-01-10T14:38:18;71.30;;;23.13;;